KOGB/OGB METAR and TAF weather

Enter ICAO airport designator
Station Type Date Time Source
KOGB METAR 2020/08/14 01:53 UTC NOAA

KOGB 140153Z AUTO 21004KT 10SM CLR 23/23 A3000 RMK AO2 SLP155 T02330233


Station Type Date Time Source
KOGB Decoded METAR 2020/08/14 01:53 UTC NOAA

ORANGEBURG MUNICIPAL AIRPORT, SC, United States (KOGB) 33-28N 080-51W 59M
Aug 13, 2020 - 09:53 PM EDT / 2020.08.14 0153 UTC
Wind: from the SSW (210 degrees) at 5 MPH (4 KT):0
Visibility: 10 mile(s):0
Sky conditions: clear
Temperature: 73.9 F (23.3 C)
Dew Point: 73.9 F (23.3 C)
Relative Humidity: 100%
Pressure (altimeter): 30 in. Hg (1015 hPa)
ob: KOGB 140153Z AUTO 21004KT 10SM CLR 23/23 A3000 RMK AO2 SLP155 T02330233
cycle: 2

Station Type Date Time Source
KOGB TAF 2020/08/14 03:42 UTC NOAA

TAF
AMD KOGB 140240Z 1403/1424 13005KT P6SM BKN120
FM140800 VRB03KT P6SM SCT004 BKN120
TEMPO 1409/1413 2SM BR OVC003
FM141300 22004KT P6SM SCT035 BKN150
FM141900 21005KT P6SM VCTS SCT035CB BKN120

Example: see airport list